Wenatchee, WA (98802)

1:38 PM PDT on August 30, 2016 (GMT -0700)
East Wenatchee North Nile | | Change Station

Elev 1184 ft 47.41 °N, 120.24 °W | Updated 3 seconds ago

Clear
Clear
74.8 °F
Feels Like 77 °F
N
2.7
Wind Variable Wind from South
Gusts 4.9 mph

Today
High -- | Low -- °F
--% Chance of Precip.
Yesterday
High -- | Low -- °F
Precip. -- in
Pressure 29.87 in
Visibility 10.0 miles
Clouds Clear
Heat Index 77 °F
Dew Point 44 °F
Humidity 33%
Rainfall 0.00 in
Snow Depth Not available.
6:17 AM 7:43 PM
Waning Crescent, 2% visible
METAR KEAT 301955Z AUTO 24005KT 10SM CLR 23/07 A2989 RMK AO2 SLP113 T02330072
Pressure 29.87 in
Visibility 10.0 miles
Clouds Clear
Heat Index 77 °F
Dew Point 44 °F
Humidity 33%
Rainfall 0.00 in
Snow Depth Not available.
6:17 AM 7:43 PM
Waning Crescent, 2% visible
METAR KEAT 301955Z AUTO 24005KT 10SM CLR 23/07 A2989 RMK AO2 SLP113 T02330072

10-Day Weather Forecast

Almanac

Astronomy

Aug. 30, 2016 Rise Set
Actual Time
Civil Twilight
Nautical Twilight
Astronomical Twilight
Moon
Length of Visible Light
Length of Day
Tomorrow will be .
, % of the Moon is Illuminated

Today's Extremes

State Highs State Lows

Community

WunderPhotos

Upload Photos

1,935,889 photos uploaded!

WunderBlog® & News

Nearby

Air Quality

  Air Quality AQ Index Pollutant
Not available.

Snow Depth

Station Depth Elevation

Earthquake Activity

City Distance Mag. Time & Date
Minimum magnitude displayed is 2.5.

Coastal Water Temperatures

Place Temperature

Stations

Nearby Weather Stations

Station Location Temp. Windchill Dew Point Humidity Wind Precip. Elev Updated Type
                   

Watches & Warnings

There are currently no watches in effect.